Myerstown, Pennsylvania
Current Conditions -  °F | °C
As of 9:58 AM on Friday 19 Dec 2014 (Local Time) from KMUI Reporting Station
Overcast Overcast  
Wind Chill: -2°   Ceiling: 3300
Heat Index:   Visibility: 10mi
Dew Point: -5°   Wind: 9mph
Humidity: 58%   Direction: 290°WNW
Pressure: 30.11"   Gusts: NA
Location:  40.37°N, 76.3°W
Report Text: KMUI 191458Z AUTO 29008KT 250V350 10SM OVC033 02/M05 A3011 RMK AO2 SLP204 T00201054 52015
Loading
Personal Weather Stations






























Interactive Weather Map New forecast layout! Learn more

10-Day Weather Forecast

Advertisements
Track Severe Weather on mobile